createdAt,value
2018-03-19T00:01:24.800Z,13.35
2018-03-19T00:03:51.978Z,12.57
2018-03-19T00:06:19.130Z,12.68
2018-03-19T00:08:45.562Z,13.32
2018-03-19T00:11:13.342Z,11.88
2018-03-19T00:13:39.763Z,12.98
2018-03-19T00:16:06.177Z,14.95
2018-03-19T00:18:32.592Z,12.07
2018-03-19T00:20:59.549Z,14.00
2018-03-19T00:23:25.965Z,12.30
2018-03-19T00:25:52.368Z,13.43
2018-03-19T00:28:18.802Z,14.57
2018-03-19T00:30:45.213Z,13.53
2018-03-19T00:33:11.638Z,14.52
2018-03-19T00:35:38.050Z,13.27
2018-03-19T00:38:05.193Z,12.95
2018-03-19T00:40:31.635Z,11.88
2018-03-19T00:42:58.147Z,11.80
2018-03-19T00:45:25.337Z,13.27
2018-03-19T00:47:51.746Z,12.00
2018-03-19T00:50:18.163Z,14.60
2018-03-19T00:52:44.560Z,12.20
2018-03-19T00:55:10.968Z,14.07
2018-03-19T00:57:37.367Z,14.23
2018-03-19T01:00:03.859Z,13.43
2018-03-19T01:02:30.324Z,15.68
2018-03-19T01:04:57.491Z,11.75
2018-03-19T01:07:24.628Z,13.57
2018-03-19T01:09:51.812Z,11.25
2018-03-19T01:12:18.996Z,14.18
2018-03-19T01:14:46.161Z,13.05
2018-03-19T01:17:13.990Z,12.90
2018-03-19T01:19:40.418Z,14.00
2018-03-19T01:22:06.875Z,14.20
2018-03-19T01:24:33.279Z,14.32
2018-03-19T01:26:59.685Z,12.80
2018-03-19T01:29:26.092Z,12.02
2018-03-19T01:31:52.526Z,13.00
2018-03-19T01:34:19.047Z,13.32
2018-03-19T01:36:46.216Z,13.43
2018-03-19T01:39:12.658Z,13.30
2018-03-19T01:41:39.829Z,12.25
2018-03-19T01:44:06.293Z,14.77
2018-03-19T01:46:33.442Z,13.95
2018-03-19T01:48:59.937Z,16.10
2018-03-19T01:51:26.368Z,23.90
2018-03-19T01:53:52.801Z,24.02
2018-03-19T01:56:19.212Z,28.17
2018-03-19T01:58:45.648Z,14.10
2018-03-19T02:01:12.814Z,12.70
2018-03-19T02:03:39.945Z,14.07
2018-03-19T02:06:06.378Z,14.98
2018-03-19T02:08:32.912Z,14.75
2018-03-19T02:11:02.846Z,22.40
2018-03-19T02:13:29.997Z,24.80
2018-03-19T02:15:56.472Z,29.00
2018-03-19T02:18:23.621Z,26.92
2018-03-19T02:20:50.812Z,24.05
2018-03-19T02:23:17.987Z,19.80
2018-03-19T02:25:45.142Z,16.70
2018-03-19T02:28:11.588Z,14.20
2018-03-19T02:30:38.769Z,14.05
2018-03-19T02:33:05.184Z,12.90
2018-03-19T02:35:31.607Z,15.35
2018-03-19T02:37:58.015Z,14.27
2018-03-19T02:40:24.443Z,14.57
2018-03-19T02:42:50.846Z,14.05
2018-03-19T02:45:18.044Z,12.13
2018-03-19T02:47:44.466Z,13.23
2018-03-19T02:50:12.373Z,13.87
2018-03-19T02:52:39.516Z,14.23
2018-03-19T02:55:06.011Z,15.82
2018-03-19T02:57:32.467Z,15.00
2018-03-19T02:59:59.706Z,19.83
2018-03-19T03:02:26.866Z,15.02
2018-03-19T03:04:53.303Z,14.82
2018-03-19T03:07:19.765Z,15.65
2018-03-19T03:09:46.177Z,14.90
2018-03-19T03:12:12.644Z,14.77
2018-03-19T03:14:39.060Z,15.13
2018-03-19T03:17:05.453Z,15.45
2018-03-19T03:19:31.857Z,14.63
2018-03-19T03:21:58.280Z,13.77
2018-03-19T03:24:24.816Z,16.37
2018-03-19T03:26:52.092Z,16.52
2018-03-19T03:29:19.228Z,15.10
2018-03-19T03:31:45.719Z,13.70
2018-03-19T03:34:12.903Z,14.57
2018-03-19T03:36:39.448Z,14.52
2018-03-19T03:39:06.725Z,14.85
2018-03-19T03:41:33.910Z,15.07
2018-03-19T03:44:00.454Z,13.98
2018-03-19T03:46:27.832Z,12.65
2018-03-19T03:48:55.002Z,15.20
2018-03-19T03:51:22.278Z,15.37
2018-03-19T03:53:49.428Z,14.23
2018-03-19T03:56:16.578Z,14.98
2018-03-19T03:58:44.607Z,16.37
2018-03-19T04:01:11.757Z,14.48
2018-03-19T04:03:38.175Z,15.93
2018-03-19T04:06:04.611Z,15.80
2018-03-19T04:08:31.054Z,13.57
2018-03-19T04:10:58.228Z,13.25
2018-03-19T04:13:24.702Z,17.95
2018-03-19T04:15:51.095Z,16.00
2018-03-19T04:18:17.487Z,15.63
2018-03-19T04:20:44.647Z,15.40
2018-03-19T04:23:11.937Z,14.70
2018-03-19T04:25:38.600Z,16.08
2018-03-19T04:28:05.754Z,13.25
2018-03-19T04:30:32.944Z,15.50
2018-03-19T04:33:00.128Z,14.35
2018-03-19T04:35:26.673Z,15.55
2018-03-19T04:37:53.132Z,14.82
2018-03-19T04:40:19.545Z,13.65
2018-03-19T04:42:46.041Z,16.17
2018-03-19T04:45:13.211Z,16.70
2018-03-19T04:47:40.397Z,15.00
2018-03-19T04:50:07.152Z,15.93
2018-03-19T04:52:33.604Z,16.50
2018-03-19T04:55:00.812Z,15.65
2018-03-19T04:57:27.758Z,15.55
2018-03-19T04:59:54.195Z,20.70
2018-03-19T05:02:21.355Z,17.90
2018-03-19T05:04:48.504Z,20.02
2018-03-19T05:07:15.001Z,14.43
2018-03-19T05:09:42.174Z,13.40
2018-03-19T05:12:09.356Z,16.67
2018-03-19T05:14:35.903Z,15.80
2018-03-19T05:17:03.146Z,14.50
2018-03-19T05:19:29.576Z,16.33
2018-03-19T05:21:55.992Z,16.08
2018-03-19T05:24:23.739Z,15.57
2018-03-19T05:26:50.831Z,14.60
2018-03-19T05:29:18.002Z,17.40
2018-03-19T05:31:45.295Z,16.62
2018-03-19T05:34:11.850Z,19.30
2018-03-19T05:36:39.049Z,18.50
2018-03-19T05:39:05.585Z,19.15
2018-03-19T05:41:32.027Z,21.75
2018-03-19T05:43:59.194Z,16.25
2018-03-19T05:46:26.419Z,16.83
2018-03-19T05:48:52.842Z,17.20
2018-03-19T05:51:19.256Z,16.05
2018-03-19T05:53:45.684Z,17.42
2018-03-19T05:56:12.115Z,20.70
2018-03-19T05:58:38.520Z,23.30
2018-03-19T06:01:04.968Z,24.25
2018-03-19T06:03:31.413Z,23.27
2018-03-19T06:05:57.833Z,25.33
2018-03-19T06:08:25.027Z,20.77
2018-03-19T06:10:51.501Z,19.92
2018-03-19T06:13:17.929Z,20.73
2018-03-19T06:15:44.405Z,19.60
2018-03-19T06:18:10.802Z,26.85
2018-03-19T06:20:37.204Z,22.40
2018-03-19T06:23:03.654Z,28.70
2018-03-19T06:25:30.104Z,34.10
2018-03-19T06:27:56.504Z,39.13
2018-03-19T06:30:22.937Z,35.10
2018-03-19T06:32:49.365Z,38.22
2018-03-19T06:35:16.348Z,29.40
2018-03-19T06:37:42.780Z,27.48
2018-03-19T06:40:09.215Z,22.80
2018-03-19T06:42:36.376Z,18.33
2018-03-19T06:45:02.876Z,19.37
2018-03-19T06:47:29.340Z,20.98
2018-03-19T06:49:55.885Z,19.92
2018-03-19T06:52:23.255Z,17.83
2018-03-19T06:54:50.432Z,16.75
2018-03-19T06:57:16.880Z,13.70
2018-03-19T06:59:44.085Z,13.23
2018-03-19T07:02:10.682Z,15.70
2018-03-19T07:04:37.117Z,13.32
2018-03-19T07:07:03.538Z,13.97
2018-03-19T07:09:29.959Z,13.40
2018-03-19T07:11:56.426Z,13.35
2018-03-19T07:14:23.657Z,12.85
2018-03-19T07:16:50.128Z,12.30
2018-03-19T07:19:16.687Z,15.55
2018-03-19T07:21:43.131Z,19.60
2018-03-19T07:24:09.572Z,16.33
2018-03-19T07:26:36.005Z,16.02
2018-03-19T07:29:02.414Z,18.30
2018-03-19T07:31:28.867Z,14.57
2018-03-19T07:33:55.334Z,13.65
2018-03-19T07:36:21.735Z,14.10
2018-03-19T07:38:48.769Z,16.23
2018-03-19T07:41:15.248Z,14.32
2018-03-19T07:43:42.852Z,27.02
2018-03-19T07:46:09.538Z,14.60
2018-03-19T07:48:35.999Z,15.95
2018-03-19T07:51:02.524Z,15.05
2018-03-19T07:53:28.910Z,17.60
2018-03-19T07:55:55.395Z,15.82
2018-03-19T07:58:22.588Z,13.83
2018-03-19T08:00:49.761Z,13.77
2018-03-19T08:03:17.033Z,14.50
2018-03-19T08:05:44.345Z,15.18
2018-03-19T08:08:11.180Z,13.77
2018-03-19T08:10:37.688Z,13.50
2018-03-19T08:13:04.289Z,20.10
2018-03-19T08:15:31.449Z,16.02
2018-03-19T08:17:58.603Z,15.50
2018-03-19T08:20:25.094Z,13.50
2018-03-19T08:22:51.551Z,15.23
2018-03-19T08:25:18.069Z,19.67
2018-03-19T08:27:44.663Z,16.65
2018-03-19T08:30:11.876Z,15.27
2018-03-19T08:32:38.322Z,16.62
2018-03-19T08:35:04.778Z,15.00
2018-03-19T08:37:31.217Z,17.92
2018-03-19T08:39:58.251Z,22.15
2018-03-19T08:42:24.682Z,22.33
2018-03-19T08:44:51.188Z,20.12
2018-03-19T08:47:18.323Z,18.08
2018-03-19T08:49:46.567Z,16.23
2018-03-19T08:52:12.968Z,15.82
2018-03-19T08:54:39.467Z,17.17
2018-03-19T08:57:06.637Z,17.90
2018-03-19T08:59:33.914Z,17.10
2018-03-19T09:02:01.078Z,15.20
2018-03-19T09:04:28.265Z,15.50
2018-03-19T09:06:54.673Z,17.58
2018-03-19T09:09:21.273Z,17.27
2018-03-19T09:11:48.403Z,15.23
2018-03-19T09:14:14.874Z,16.00
2018-03-19T09:16:41.256Z,16.73
2018-03-19T09:19:08.529Z,14.68
2018-03-19T09:21:35.906Z,14.95
2018-03-19T09:24:03.112Z,16.75
2018-03-19T09:26:30.381Z,19.58
2018-03-19T09:28:56.793Z,14.73
2018-03-19T09:31:23.281Z,15.35
2018-03-19T09:33:49.679Z,18.92
2018-03-19T09:36:16.118Z,15.13
2018-03-19T09:38:42.634Z,15.10
2018-03-19T09:41:09.773Z,16.77
2018-03-19T09:43:36.174Z,15.05
2018-03-19T09:46:02.769Z,15.82
2018-03-19T09:48:29.215Z,15.15
2018-03-19T09:50:55.639Z,13.05
2018-03-19T09:53:22.066Z,16.60
2018-03-19T09:55:49.244Z,15.45
2018-03-19T09:58:16.399Z,14.48
2018-03-19T10:00:43.608Z,17.73
2018-03-19T10:03:10.019Z,17.00
2018-03-19T10:05:36.446Z,13.07
2018-03-19T10:08:02.911Z,15.45
2018-03-19T10:10:29.361Z,17.58
2018-03-19T10:12:55.885Z,13.65
2018-03-19T10:15:23.127Z,14.48
2018-03-19T10:17:49.574Z,14.32
2018-03-19T10:20:16.002Z,16.67
2018-03-19T10:22:42.424Z,16.67
2018-03-19T10:25:09.604Z,15.95
2018-03-19T10:27:36.075Z,14.15
2018-03-19T10:30:03.261Z,14.45
2018-03-19T10:32:29.697Z,12.40
2018-03-19T10:34:56.096Z,14.15
2018-03-19T10:37:22.522Z,12.75
2018-03-19T10:39:48.942Z,20.75
2018-03-19T10:42:16.116Z,14.05
2018-03-19T10:44:43.276Z,16.85
2018-03-19T10:47:09.652Z,23.38
2018-03-19T10:49:36.046Z,14.68
2018-03-19T10:52:02.435Z,23.45
2018-03-19T10:54:28.843Z,17.58
2018-03-19T10:56:55.246Z,18.15
2018-03-19T10:59:21.690Z,17.87
2018-03-19T11:01:48.124Z,14.40
2018-03-19T11:04:15.224Z,14.52
2018-03-19T11:06:44.574Z,15.57
2018-03-19T11:09:17.058Z,17.33
2018-03-19T11:11:44.210Z,14.10
2018-03-19T11:14:10.615Z,15.80
2018-03-19T11:16:37.017Z,17.12
2018-03-19T11:19:04.282Z,19.67
2018-03-19T11:21:30.711Z,19.23
2018-03-19T11:23:57.239Z,17.02
2018-03-19T11:26:23.911Z,18.85
2018-03-19T11:28:50.524Z,16.60
2018-03-19T11:31:16.960Z,16.58
2018-03-19T11:33:43.389Z,17.50
2018-03-19T11:36:09.915Z,16.17
2018-03-19T11:38:37.131Z,16.62
2018-03-19T11:41:03.565Z,20.17
2018-03-19T11:43:30.004Z,16.95
2018-03-19T11:45:57.743Z,18.20
2018-03-19T11:48:24.158Z,14.63
2018-03-19T11:50:50.628Z,16.70
2018-03-19T11:53:17.069Z,16.10
2018-03-19T11:55:43.496Z,15.70
2018-03-19T11:58:13.187Z,16.05
2018-03-19T12:00:39.596Z,16.83
2018-03-19T12:03:06.056Z,16.67
2018-03-19T12:05:33.198Z,15.63
2018-03-19T12:07:59.656Z,15.02
2018-03-19T12:10:26.956Z,17.25
2018-03-19T12:12:54.104Z,15.48
2018-03-19T12:15:20.526Z,17.60
2018-03-19T12:17:46.958Z,16.73
2018-03-19T12:20:13.535Z,19.25
2018-03-19T12:22:39.901Z,15.52
2018-03-19T12:25:06.410Z,14.00
2018-03-19T12:27:33.565Z,14.48
2018-03-19T12:30:00.728Z,13.07
2018-03-19T12:32:27.888Z,12.52
2018-03-19T12:34:54.297Z,13.25
2018-03-19T12:37:20.839Z,15.07
2018-03-19T12:39:48.013Z,13.27
2018-03-19T12:42:14.479Z,14.80
2018-03-19T12:44:40.957Z,16.48
2018-03-19T12:47:07.481Z,11.60
2018-03-19T12:49:34.617Z,13.50
2018-03-19T12:52:01.472Z,17.25
2018-03-19T12:54:28.694Z,12.48
2018-03-19T12:56:55.248Z,35.08
2018-03-19T12:59:22.380Z,38.58
2018-03-19T13:01:48.836Z,16.00
2018-03-19T13:04:15.327Z,19.20
2018-03-19T13:06:42.509Z,22.27
2018-03-19T13:09:08.905Z,16.20
2018-03-19T13:11:35.349Z,16.85
2018-03-19T13:14:02.182Z,13.10
2018-03-19T13:16:29.332Z,10.32
2018-03-19T13:18:55.810Z,11.82
2018-03-19T13:21:23.085Z,14.90
2018-03-19T13:23:50.253Z,22.27
2018-03-19T13:26:17.412Z,22.50
2018-03-19T13:28:43.885Z,25.15
2018-03-19T13:31:11.044Z,16.15
2018-03-19T13:33:38.221Z,15.05
2018-03-19T13:36:04.697Z,17.17
2018-03-19T13:38:31.150Z,18.02
2018-03-19T13:40:57.623Z,13.90
2018-03-19T13:43:24.039Z,11.40
2018-03-19T13:45:51.170Z,13.15
2018-03-19T13:48:17.575Z,21.85
2018-03-19T13:50:44.070Z,12.00
2018-03-19T13:53:10.606Z,13.35
2018-03-19T13:55:37.006Z,16.50
2018-03-19T13:58:03.452Z,11.65
2018-03-19T14:00:29.868Z,12.93
2018-03-19T14:02:56.326Z,11.85
2018-03-19T14:05:22.780Z,10.95
2018-03-19T14:07:49.239Z,11.98
2018-03-19T14:10:15.676Z,11.70
2018-03-19T14:12:42.833Z,13.38
2018-03-19T14:15:09.315Z,10.35
2018-03-19T14:17:36.467Z,13.40
2018-03-19T14:20:03.670Z,10.52
2018-03-19T14:22:30.118Z,12.13
2018-03-19T14:24:57.276Z,16.45
2018-03-19T14:27:25.279Z,12.27
2018-03-19T14:29:53.194Z,12.00
2018-03-19T14:32:19.631Z,11.18
2018-03-19T14:34:46.073Z,13.62
2018-03-19T14:37:13.247Z,11.80
2018-03-19T14:39:39.913Z,11.38
2018-03-19T14:42:06.350Z,11.60
2018-03-19T14:44:32.826Z,11.23
2018-03-19T14:47:00.013Z,11.38
2018-03-19T14:49:26.384Z,11.32
2018-03-19T14:51:52.850Z,20.20
2018-03-19T14:54:19.255Z,17.45
2018-03-19T14:56:46.418Z,9.73
2018-03-19T14:59:12.829Z,8.90
2018-03-19T15:01:39.458Z,8.88
2018-03-19T15:04:05.866Z,10.65
2018-03-19T15:06:32.364Z,10.93
2018-03-19T15:08:59.563Z,11.85
2018-03-19T15:11:26.098Z,9.43
2018-03-19T15:13:53.168Z,13.25
2018-03-19T15:16:19.623Z,12.65
2018-03-19T15:18:46.896Z,9.55
2018-03-19T15:21:14.075Z,8.60
2018-03-19T15:23:40.500Z,13.68
2018-03-19T15:26:06.956Z,12.90
2018-03-19T15:28:33.444Z,10.70
2018-03-19T15:30:59.855Z,8.05
2018-03-19T15:33:26.280Z,10.73
2018-03-19T15:35:52.993Z,12.23
2018-03-19T15:38:20.195Z,10.65
2018-03-19T15:40:46.739Z,12.32
2018-03-19T15:43:13.966Z,15.82
2018-03-19T15:45:40.633Z,12.32
2018-03-19T15:48:07.085Z,10.60
2018-03-19T15:50:34.209Z,10.02
2018-03-19T15:53:00.634Z,7.93
2018-03-19T15:55:27.158Z,12.82
2018-03-19T15:57:54.188Z,12.95
2018-03-19T16:00:20.891Z,11.07
2018-03-19T16:02:47.503Z,8.13
2018-03-19T16:05:14.776Z,10.85
2018-03-19T16:07:43.928Z,16.37
2018-03-19T16:10:10.342Z,12.50
2018-03-19T16:12:37.522Z,9.30
2018-03-19T16:15:05.070Z,20.85
2018-03-19T16:17:31.550Z,18.33
2018-03-19T16:19:58.714Z,9.88
2018-03-19T16:22:25.890Z,10.55
2018-03-19T16:24:53.057Z,10.82
2018-03-19T16:27:19.649Z,11.02
2018-03-19T16:29:46.887Z,11.48
2018-03-19T16:32:13.544Z,13.90
2018-03-19T16:34:39.991Z,9.00
2018-03-19T16:37:06.692Z,15.77
2018-03-19T16:39:33.161Z,12.90
2018-03-19T16:41:59.702Z,10.07
2018-03-19T16:44:26.111Z,14.10
2018-03-19T16:46:52.549Z,10.02
2018-03-19T16:49:18.968Z,11.35
2018-03-19T16:51:46.359Z,13.13
2018-03-19T16:54:12.903Z,11.55
2018-03-19T16:56:40.059Z,11.07
2018-03-19T16:59:07.233Z,11.02
2018-03-19T17:01:34.523Z,14.65
2018-03-19T17:04:01.074Z,12.20
2018-03-19T17:06:27.524Z,16.85
2018-03-19T17:08:53.984Z,15.85
2018-03-19T17:11:21.280Z,14.23
2018-03-19T17:13:47.708Z,14.80
2018-03-19T17:16:14.905Z,29.77
2018-03-19T17:18:41.351Z,14.63
2018-03-19T17:21:08.624Z,16.10
2018-03-19T17:23:35.816Z,13.95
2018-03-19T17:26:02.323Z,17.58
2018-03-19T17:28:28.789Z,14.45
2018-03-19T17:30:55.270Z,15.02
2018-03-19T17:33:22.544Z,12.05
2018-03-19T17:35:49.690Z,15.75
2018-03-19T17:38:16.888Z,26.92
2018-03-19T17:40:44.056Z,21.55
2018-03-19T17:43:11.228Z,27.90
2018-03-19T17:45:38.506Z,21.40
2018-03-19T17:48:05.678Z,21.30
2018-03-19T17:50:32.843Z,23.20
2018-03-19T17:53:00.125Z,17.77
2018-03-19T17:55:27.352Z,20.05
2018-03-19T17:57:54.392Z,18.02
2018-03-19T18:00:20.862Z,12.25
2018-03-19T18:02:47.382Z,12.88
2018-03-19T18:05:14.584Z,9.52
2018-03-19T18:07:42.484Z,13.65
2018-03-19T18:10:09.027Z,13.35
2018-03-19T18:12:36.069Z,14.40
2018-03-19T18:15:03.392Z,22.50
2018-03-19T18:17:30.319Z,20.40
2018-03-19T18:19:57.620Z,23.83
2018-03-19T18:22:25.966Z,30.45
2018-03-19T18:24:52.710Z,22.83
2018-03-19T18:27:19.307Z,24.52
2018-03-19T18:29:47.298Z,29.92
2018-03-19T18:32:14.996Z,100.60
2018-03-19T18:34:41.540Z,91.65
2018-03-19T18:37:09.358Z,73.22
2018-03-19T18:39:35.900Z,101.53
2018-03-19T18:42:02.444Z,108.00
2018-03-19T18:44:28.879Z,31.17
2018-03-19T18:46:55.342Z,88.18
2018-03-19T18:49:23.044Z,59.00
2018-03-19T18:51:49.598Z,58.63
2018-03-19T18:54:16.975Z,58.17
2018-03-19T18:56:44.256Z,49.40
2018-03-19T18:59:11.991Z,30.67
2018-03-19T19:01:38.609Z,18.55
2018-03-19T19:04:05.153Z,20.62
2018-03-19T19:06:31.656Z,40.30
2018-03-19T19:08:58.058Z,27.58
2018-03-19T19:11:25.341Z,22.08
2018-03-19T19:13:51.831Z,22.13
2018-03-19T19:16:18.337Z,20.58
2018-03-19T19:18:44.769Z,14.90
2018-03-19T19:21:11.267Z,15.40
2018-03-19T19:23:38.449Z,13.45
2018-03-19T19:26:04.970Z,15.18
2018-03-19T19:28:31.404Z,18.08
2018-03-19T19:30:57.912Z,15.63
2018-03-19T19:33:24.469Z,13.25
2018-03-19T19:35:51.810Z,13.10
2018-03-19T19:38:18.303Z,12.45
2018-03-19T19:40:45.942Z,16.50
2018-03-19T19:43:13.161Z,18.75
2018-03-19T19:45:39.714Z,18.58
2018-03-19T19:48:06.887Z,18.85
2018-03-19T19:50:34.722Z,18.90
2018-03-19T19:53:01.126Z,28.27
2018-03-19T19:55:28.407Z,39.85
2018-03-19T19:57:54.854Z,38.00
2018-03-19T20:00:22.239Z,33.40
2018-03-19T20:02:49.403Z,34.55
2018-03-19T20:05:16.576Z,36.65
2018-03-19T20:07:44.574Z,35.25
2018-03-19T20:10:11.199Z,29.35
2018-03-19T20:12:37.639Z,34.95
2018-03-19T20:15:04.201Z,39.55
2018-03-19T20:17:30.609Z,32.15
2018-03-19T20:19:57.045Z,25.37
2018-03-19T20:22:24.224Z,23.40
2018-03-19T20:24:51.461Z,25.15
2018-03-19T20:27:17.892Z,23.80
2018-03-19T20:29:46.156Z,23.90
2018-03-19T20:32:12.584Z,26.15
2018-03-19T20:34:39.147Z,17.87
2018-03-19T20:37:06.693Z,15.68
2018-03-19T20:39:33.216Z,16.35
2018-03-19T20:42:00.390Z,14.23
2018-03-19T20:44:26.840Z,18.35
2018-03-19T20:46:54.720Z,14.50
2018-03-19T20:49:21.895Z,13.68
2018-03-19T20:51:49.057Z,13.02
2018-03-19T20:54:16.256Z,13.82
2018-03-19T20:56:42.724Z,13.13
2018-03-19T20:59:09.301Z,18.15
2018-03-19T21:01:36.019Z,17.50
2018-03-19T21:04:02.521Z,17.73
2018-03-19T21:06:28.929Z,13.85
2018-03-19T21:08:56.097Z,19.05
2018-03-19T21:11:23.305Z,13.73
2018-03-19T21:13:50.863Z,26.45
2018-03-19T21:16:17.450Z,27.35
2018-03-19T21:18:44.028Z,22.42
2018-03-19T21:21:10.530Z,23.70
2018-03-19T21:23:36.955Z,38.38
2018-03-19T21:26:03.484Z,63.95
2018-03-19T21:28:32.007Z,128.93
2018-03-19T21:30:59.421Z,130.40
2018-03-19T21:33:26.702Z,70.55
2018-03-19T21:35:53.879Z,46.78
2018-03-19T21:38:20.364Z,38.45
2018-03-19T21:40:46.784Z,30.33
2018-03-19T21:43:13.944Z,38.05
2018-03-19T21:45:41.099Z,34.42
2018-03-19T21:48:07.527Z,29.48
2018-03-19T21:50:34.043Z,29.45
2018-03-19T21:53:00.484Z,25.85
2018-03-19T21:55:27.657Z,28.65
2018-03-19T21:57:54.950Z,28.98
2018-03-19T22:00:21.410Z,24.25
2018-03-19T22:02:47.919Z,25.75
2018-03-19T22:05:14.312Z,21.00
2018-03-19T22:07:41.584Z,20.62
2018-03-19T22:10:08.737Z,21.65
2018-03-19T22:12:35.215Z,25.27
2018-03-19T22:15:02.596Z,19.33
2018-03-19T22:17:29.150Z,24.42
2018-03-19T22:19:56.340Z,21.58
2018-03-19T22:22:22.886Z,17.35
2018-03-19T22:24:49.326Z,19.85
2018-03-19T22:27:16.542Z,15.50
2018-03-19T22:29:42.959Z,21.10
2018-03-19T22:32:10.142Z,17.73
2018-03-19T22:34:37.413Z,18.23
2018-03-19T22:37:04.573Z,17.83
2018-03-19T22:39:31.820Z,18.58
2018-03-19T22:41:58.248Z,17.20
2018-03-19T22:44:24.692Z,16.12
2018-03-19T22:46:51.124Z,15.95
2018-03-19T22:49:18.257Z,19.73
2018-03-19T22:51:44.747Z,18.87
2018-03-19T22:54:11.976Z,19.90
2018-03-19T22:56:38.436Z,20.70
2018-03-19T22:59:04.866Z,17.50
2018-03-19T23:01:31.288Z,18.55
2018-03-19T23:03:58.448Z,17.70
2018-03-19T23:06:24.890Z,17.12
2018-03-19T23:08:51.898Z,17.08
2018-03-19T23:11:18.327Z,18.90
2018-03-19T23:13:44.742Z,21.27
2018-03-19T23:16:11.262Z,18.10
2018-03-19T23:18:38.452Z,18.80
2018-03-19T23:21:04.847Z,23.80
2018-03-19T23:23:31.346Z,22.13
2018-03-19T23:25:58.622Z,21.90
2018-03-19T23:28:25.048Z,18.58
2018-03-19T23:30:52.288Z,19.83
2018-03-19T23:33:18.730Z,19.25
2018-03-19T23:35:45.142Z,19.77
2018-03-19T23:38:12.323Z,17.35
2018-03-19T23:40:39.491Z,21.00
2018-03-19T23:43:06.681Z,29.90
2018-03-19T23:45:33.089Z,34.45
2018-03-19T23:48:02.721Z,34.90
2018-03-19T23:50:29.852Z,21.65
2018-03-19T23:52:56.258Z,20.00
2018-03-19T23:55:22.686Z,19.15
2018-03-19T23:57:49.102Z,18.92
